sensor_id;sensor_type;location;lat;lon;timestamp;pressure;altitude;pressure_sealevel;temperature;humidity
50859;BME280;36826;47.514;19.056;2022-10-31T00:02:05;100770.88;;;16.00;80.69
50859;BME280;36826;47.514;19.056;2022-10-31T00:04:30;100776.22;;;16.18;79.01
50859;BME280;36826;47.514;19.056;2022-10-31T00:06:56;100774.56;;;15.81;81.09
50859;BME280;36826;47.514;19.056;2022-10-31T00:09:22;100767.00;;;15.48;83.35
50859;BME280;36826;47.514;19.056;2022-10-31T00:11:47;100762.22;;;15.60;83.61
50859;BME280;36826;47.514;19.056;2022-10-31T00:14:13;100757.91;;;15.68;83.01
50859;BME280;36826;47.514;19.056;2022-10-31T00:16:38;100768.88;;;15.20;87.42
50859;BME280;36826;47.514;19.056;2022-10-31T00:19:06;100759.78;;;15.21;87.30
50859;BME280;36826;47.514;19.056;2022-10-31T00:21:33;100768.91;;;15.38;86.52
50859;BME280;36826;47.514;19.056;2022-10-31T00:23:59;100762.91;;;14.98;89.97
50859;BME280;36826;47.514;19.056;2022-10-31T00:26:29;100766.66;;;14.87;90.75
50859;BME280;36826;47.514;19.056;2022-10-31T00:28:55;100757.44;;;14.90;91.02
50859;BME280;36826;47.514;19.056;2022-10-31T00:31:21;100768.22;;;14.90;91.09
50859;BME280;36826;47.514;19.056;2022-10-31T00:33:47;100758.09;;;15.20;88.03
50859;BME280;36826;47.514;19.056;2022-10-31T00:36:15;100760.28;;;15.34;87.44
50859;BME280;36826;47.514;19.056;2022-10-31T00:38:42;100763.50;;;15.56;85.34
50859;BME280;36826;47.514;19.056;2022-10-31T00:41:09;100757.66;;;15.43;85.22
50859;BME280;36826;47.514;19.056;2022-10-31T00:43:34;100752.94;;;15.45;84.99
50859;BME280;36826;47.514;19.056;2022-10-31T00:46:00;100758.13;;;15.74;82.33
50859;BME280;36826;47.514;19.056;2022-10-31T00:48:27;100761.84;;;15.73;82.19
50859;BME280;36826;47.514;19.056;2022-10-31T00:50:53;100759.03;;;15.83;81.19
50859;BME280;36826;47.514;19.056;2022-10-31T00:53:18;100755.44;;;15.92;80.33
50859;BME280;36826;47.514;19.056;2022-10-31T00:55:47;100751.88;;;15.92;80.35
50859;BME280;36826;47.514;19.056;2022-10-31T00:58:12;100750.56;;;15.78;80.95
50859;BME280;36826;47.514;19.056;2022-10-31T01:00:38;100754.44;;;15.93;80.61
50859;BME280;36826;47.514;19.056;2022-10-31T01:03:03;100758.34;;;16.25;78.95
50859;BME280;36826;47.514;19.056;2022-10-31T01:05:29;100760.56;;;16.30;78.10
50859;BME280;36826;47.514;19.056;2022-10-31T01:07:55;100750.69;;;16.13;78.69
50859;BME280;36826;47.514;19.056;2022-10-31T01:10:21;100745.69;;;16.00;79.32
50859;BME280;36826;47.514;19.056;2022-10-31T01:12:50;100749.16;;;15.92;79.75
50859;BME280;36826;47.514;19.056;2022-10-31T01:15:19;100749.38;;;15.80;80.97
50859;BME280;36826;47.514;19.056;2022-10-31T01:17:45;100751.66;;;15.85;80.99
50859;BME280;36826;47.514;19.056;2022-10-31T01:20:12;100746.63;;;15.90;80.77
50859;BME280;36826;47.514;19.056;2022-10-31T01:22:38;100744.16;;;15.79;80.53
50859;BME280;36826;47.514;19.056;2022-10-31T01:25:08;100747.31;;;15.56;82.64
50859;BME280;36826;47.514;19.056;2022-10-31T01:27:34;100743.09;;;14.90;87.81
50859;BME280;36826;47.514;19.056;2022-10-31T01:30:01;100734.78;;;14.73;91.27
50859;BME280;36826;47.514;19.056;2022-10-31T01:32:29;100736.25;;;14.95;90.45
50859;BME280;36826;47.514;19.056;2022-10-31T01:34:58;100733.41;;;14.59;94.89
50859;BME280;36826;47.514;19.056;2022-10-31T01:37:23;100733.53;;;14.95;90.76
50859;BME280;36826;47.514;19.056;2022-10-31T01:39:49;100734.44;;;15.14;89.26
50859;BME280;36826;47.514;19.056;2022-10-31T01:42:19;100736.16;;;15.33;88.18
50859;BME280;36826;47.514;19.056;2022-10-31T01:44:55;100732.22;;;15.45;87.00
50859;BME280;36826;47.514;19.056;2022-10-31T01:47:31;100732.69;;;15.41;85.76
50859;BME280;36826;47.514;19.056;2022-10-31T01:50:00;100729.03;;;15.32;85.47
50859;BME280;36826;47.514;19.056;2022-10-31T01:55:01;100727.13;;;14.78;90.85
50859;BME280;36826;47.514;19.056;2022-10-31T01:57:31;100725.66;;;14.84;90.74
50859;BME280;36826;47.514;19.056;2022-10-31T01:59:59;100724.00;;;15.01;90.27
50859;BME280;36826;47.514;19.056;2022-10-31T02:02:27;100733.69;;;15.22;87.39
50859;BME280;36826;47.514;19.056;2022-10-31T02:04:54;100732.97;;;15.19;86.42
50859;BME280;36826;47.514;19.056;2022-10-31T02:07:34;100734.22;;;15.43;84.58
50859;BME280;36826;47.514;19.056;2022-10-31T02:10:02;100732.75;;;15.31;84.93
50859;BME280;36826;47.514;19.056;2022-10-31T02:12:30;100726.81;;;15.27;85.57
50859;BME280;36826;47.514;19.056;2022-10-31T02:14:59;100725.41;;;15.05;87.39
50859;BME280;36826;47.514;19.056;2022-10-31T02:17:25;100724.03;;;14.63;89.18
50859;BME280;36826;47.514;19.056;2022-10-31T02:28:46;100716.47;;;14.39;90.09
50859;BME280;36826;47.514;19.056;2022-10-31T02:37:11;100728.38;;;15.02;85.30
50859;BME280;36826;47.514;19.056;2022-10-31T02:39:56;100726.94;;;14.80;87.73
50859;BME280;36826;47.514;19.056;2022-10-31T02:42:40;100727.47;;;14.55;89.16
50859;BME280;36826;47.514;19.056;2022-10-31T02:45:14;100738.75;;;14.41;90.65
50859;BME280;36826;47.514;19.056;2022-10-31T02:47:44;100735.81;;;14.62;90.34
50859;BME280;36826;47.514;19.056;2022-10-31T02:50:34;100744.03;;;14.98;87.31
50859;BME280;36826;47.514;19.056;2022-10-31T02:53:02;100750.03;;;14.92;87.67
50859;BME280;36826;47.514;19.056;2022-10-31T03:00:29;100738.88;;;14.39;93.35
50859;BME280;36826;47.514;19.056;2022-10-31T03:03:19;100740.25;;;14.53;92.47
50859;BME280;36826;47.514;19.056;2022-10-31T03:08:23;100742.56;;;14.86;89.24
50859;BME280;36826;47.514;19.056;2022-10-31T03:11:00;100747.16;;;15.22;86.05
50859;BME280;36826;47.514;19.056;2022-10-31T03:13:41;100751.88;;;15.38;84.25
50859;BME280;36826;47.514;19.056;2022-10-31T03:16:34;100750.28;;;15.17;84.14
50859;BME280;36826;47.514;19.056;2022-10-31T03:19:09;100754.28;;;15.41;83.05
50859;BME280;36826;47.514;19.056;2022-10-31T03:21:42;100756.56;;;15.36;82.09
50859;BME280;36826;47.514;19.056;2022-10-31T03:24:10;100758.78;;;14.29;91.49
50859;BME280;36826;47.514;19.056;2022-10-31T03:26:40;100752.31;;;13.92;97.06
50859;BME280;36826;47.514;19.056;2022-10-31T03:29:10;100760.22;;;14.13;96.79
50859;BME280;36826;47.514;19.056;2022-10-31T03:31:53;100763.31;;;14.28;95.00
50859;BME280;36826;47.514;19.056;2022-10-31T03:34:21;100756.72;;;13.93;98.00
50859;BME280;36826;47.514;19.056;2022-10-31T03:36:50;100756.25;;;14.17;97.01
50859;BME280;36826;47.514;19.056;2022-10-31T03:39:19;100764.78;;;14.13;95.43
50859;BME280;36826;47.514;19.056;2022-10-31T03:41:50;100762.47;;;14.18;95.11
50859;BME280;36826;47.514;19.056;2022-10-31T03:44:21;100766.16;;;14.17;93.67
50859;BME280;36826;47.514;19.056;2022-10-31T03:46:48;100759.34;;;14.32;93.15
50859;BME280;36826;47.514;19.056;2022-10-31T03:49:14;100765.16;;;14.65;91.13
50859;BME280;36826;47.514;19.056;2022-10-31T03:54:19;100757.88;;;14.85;87.80
50859;BME280;36826;47.514;19.056;2022-10-31T03:56:55;100762.31;;;15.04;86.65
50859;BME280;36826;47.514;19.056;2022-10-31T03:59:46;100761.00;;;15.09;86.54
50859;BME280;36826;47.514;19.056;2022-10-31T04:02:17;100763.78;;;15.17;84.54
50859;BME280;36826;47.514;19.056;2022-10-31T04:04:45;100766.66;;;15.15;83.72
50859;BME280;36826;47.514;19.056;2022-10-31T04:07:12;100768.00;;;15.29;83.67
50859;BME280;36826;47.514;19.056;2022-10-31T04:09:41;100765.97;;;15.31;82.80
50859;BME280;36826;47.514;19.056;2022-10-31T04:12:11;100764.38;;;15.39;81.63
50859;BME280;36826;47.514;19.056;2022-10-31T04:14:41;100764.66;;;15.36;81.70
50859;BME280;36826;47.514;19.056;2022-10-31T04:17:11;100766.78;;;15.42;81.35
50859;BME280;36826;47.514;19.056;2022-10-31T04:19:38;100766.97;;;15.30;81.49
50859;BME280;36826;47.514;19.056;2022-10-31T04:22:03;100770.63;;;15.11;81.72
50859;BME280;36826;47.514;19.056;2022-10-31T04:24:29;100783.88;;;15.32;81.20
50859;BME280;36826;47.514;19.056;2022-10-31T04:26:55;100776.66;;;15.05;83.77
50859;BME280;36826;47.514;19.056;2022-10-31T04:29:20;100777.19;;;15.09;82.88
50859;BME280;36826;47.514;19.056;2022-10-31T04:31:45;100782.22;;;15.03;84.44
50859;BME280;36826;47.514;19.056;2022-10-31T04:34:11;100779.81;;;15.00;84.21
50859;BME280;36826;47.514;19.056;2022-10-31T04:36:36;100778.06;;;15.09;84.32
50859;BME280;36826;47.514;19.056;2022-10-31T04:39:02;100775.19;;;15.11;84.51
50859;BME280;36826;47.514;19.056;2022-10-31T04:41:27;100776.19;;;15.10;84.86
50859;BME280;36826;47.514;19.056;2022-10-31T04:43:53;100786.28;;;15.08;85.21
50859;BME280;36826;47.514;19.056;2022-10-31T04:46:18;100779.06;;;15.08;84.79
50859;BME280;36826;47.514;19.056;2022-10-31T04:48:44;100779.59;;;15.12;85.46
50859;BME280;36826;47.514;19.056;2022-10-31T04:51:09;100783.28;;;15.11;85.12
50859;BME280;36826;47.514;19.056;2022-10-31T04:53:35;100782.31;;;15.12;85.12
50859;BME280;36826;47.514;19.056;2022-10-31T04:56:00;100788.53;;;15.12;85.76
50859;BME280;36826;47.514;19.056;2022-10-31T04:58:27;100788.31;;;15.24;84.24
50859;BME280;36826;47.514;19.056;2022-10-31T05:00:55;100776.44;;;15.16;83.73
50859;BME280;36826;47.514;19.056;2022-10-31T05:03:24;100788.16;;;15.07;85.99
50859;BME280;36826;47.514;19.056;2022-10-31T05:05:49;100789.19;;;15.24;84.81
50859;BME280;36826;47.514;19.056;2022-10-31T05:08:15;100782.78;;;15.25;84.41
50859;BME280;36826;47.514;19.056;2022-10-31T05:10:40;100774.69;;;15.25;84.34
50859;BME280;36826;47.514;19.056;2022-10-31T05:13:06;100789.13;;;14.78;88.10
50859;BME280;36826;47.514;19.056;2022-10-31T05:15:35;100791.22;;;14.47;93.57
50859;BME280;36826;47.514;19.056;2022-10-31T05:18:00;100788.88;;;14.71;91.24
50859;BME280;36826;47.514;19.056;2022-10-31T05:20:28;100802.97;;;14.46;92.85
50859;BME280;36826;47.514;19.056;2022-10-31T05:22:55;100797.38;;;14.19;95.79
50859;BME280;36826;47.514;19.056;2022-10-31T05:25:22;100785.91;;;13.58;100.00
50859;BME280;36826;47.514;19.056;2022-10-31T05:27:51;100784.38;;;13.95;100.00
50859;BME280;36826;47.514;19.056;2022-10-31T05:30:19;100792.53;;;14.33;99.75
50859;BME280;36826;47.514;19.056;2022-10-31T05:32:46;100796.84;;;13.96;100.00
50859;BME280;36826;47.514;19.056;2022-10-31T05:35:16;100796.81;;;13.76;100.00
50859;BME280;36826;47.514;19.056;2022-10-31T05:37:42;100802.63;;;14.01;100.00
50859;BME280;36826;47.514;19.056;2022-10-31T05:40:10;100793.44;;;14.04;100.00
50859;BME280;36826;47.514;19.056;2022-10-31T05:42:37;100805.03;;;14.24;99.82
50859;BME280;36826;47.514;19.056;2022-10-31T05:45:03;100802.19;;;14.16;100.00
50859;BME280;36826;47.514;19.056;2022-10-31T05:47:29;100811.25;;;14.15;99.81
50859;BME280;36826;47.514;19.056;2022-10-31T05:49:54;100803.03;;;14.26;99.32
50859;BME280;36826;47.514;19.056;2022-10-31T05:52:20;100808.00;;;14.11;99.79
50859;BME280;36826;47.514;19.056;2022-10-31T05:54:45;100797.56;;;13.98;100.00
50859;BME280;36826;47.514;19.056;2022-10-31T05:57:11;100797.94;;;14.03;100.00
50859;BME280;36826;47.514;19.056;2022-10-31T05:59:36;100801.53;;;13.74;100.00
50859;BME280;36826;47.514;19.056;2022-10-31T06:02:02;100811.16;;;13.77;100.00
50859;BME280;36826;47.514;19.056;2022-10-31T06:04:27;100807.19;;;14.01;100.00
50859;BME280;36826;47.514;19.056;2022-10-31T06:06:56;100809.31;;;13.97;100.00
50859;BME280;36826;47.514;19.056;2022-10-31T06:09:22;100804.59;;;14.29;100.00
50859;BME280;36826;47.514;19.056;2022-10-31T06:11:47;100807.72;;;14.04;99.97
50859;BME280;36826;47.514;19.056;2022-10-31T06:14:12;100804.84;;;14.35;96.49
50859;BME280;36826;47.514;19.056;2022-10-31T06:16:38;100790.97;;;14.20;100.00
50859;BME280;36826;47.514;19.056;2022-10-31T06:19:03;100802.19;;;14.16;100.00
50859;BME280;36826;47.514;19.056;2022-10-31T06:21:29;100804.94;;;14.63;96.43
50859;BME280;36826;47.514;19.056;2022-10-31T06:23:54;100808.44;;;14.26;99.66
50859;BME280;36826;47.514;19.056;2022-10-31T06:26:19;100798.84;;;13.74;100.00
50859;BME280;36826;47.514;19.056;2022-10-31T06:28:45;100800.81;;;13.92;100.00
50859;BME280;36826;47.514;19.056;2022-10-31T06:31:10;100818.09;;;13.99;100.00
50859;BME280;36826;47.514;19.056;2022-10-31T06:33:35;100821.47;;;14.01;100.00
50859;BME280;36826;47.514;19.056;2022-10-31T06:36:01;100825.19;;;14.00;100.00
50859;BME280;36826;47.514;19.056;2022-10-31T06:38:27;100831.97;;;14.24;100.00
50859;BME280;36826;47.514;19.056;2022-10-31T06:40:53;100832.47;;;14.47;95.07
50859;BME280;36826;47.514;19.056;2022-10-31T06:43:19;100835.25;;;14.65;94.03
50859;BME280;36826;47.514;19.056;2022-10-31T06:45:47;100836.41;;;14.82;92.42
50859;BME280;36826;47.514;19.056;2022-10-31T06:48:13;100843.19;;;15.14;88.98
50859;BME280;36826;47.514;19.056;2022-10-31T06:50:38;100846.09;;;15.31;87.57
50859;BME280;36826;47.514;19.056;2022-10-31T06:53:04;100835.16;;;15.32;85.86
50859;BME280;36826;47.514;19.056;2022-10-31T06:55:29;100841.28;;;15.53;83.77
50859;BME280;36826;47.514;19.056;2022-10-31T06:57:57;100847.44;;;15.45;83.28
50859;BME280;36826;47.514;19.056;2022-10-31T07:00:23;100843.22;;;15.04;84.52
50859;BME280;36826;47.514;19.056;2022-10-31T07:03:10;100843.34;;;14.85;85.74
50859;BME280;36826;47.514;19.056;2022-10-31T07:05:36;100842.41;;;14.47;90.00
50859;BME280;36826;47.514;19.056;2022-10-31T07:08:06;100836.16;;;14.56;90.23
50859;BME280;36826;47.514;19.056;2022-10-31T07:10:35;100838.19;;;14.34;92.70
50859;BME280;36826;47.514;19.056;2022-10-31T07:13:02;100838.44;;;14.51;91.78
50859;BME280;36826;47.514;19.056;2022-10-31T07:15:30;100842.50;;;15.12;86.92
50859;BME280;36826;47.514;19.056;2022-10-31T07:18:02;100845.47;;;15.37;84.75
50859;BME280;36826;47.514;19.056;2022-10-31T07:20:29;100849.63;;;15.59;83.42
50859;BME280;36826;47.514;19.056;2022-10-31T07:22:54;100840.31;;;15.44;82.59
50859;BME280;36826;47.514;19.056;2022-10-31T07:25:20;100846.13;;;15.49;82.79
50859;BME280;36826;47.514;19.056;2022-10-31T07:27:45;100848.06;;;15.39;83.22
50859;BME280;36826;47.514;19.056;2022-10-31T07:30:12;100850.50;;;15.32;84.02
50859;BME280;36826;47.514;19.056;2022-10-31T07:32:43;100841.19;;;15.44;83.13
50859;BME280;36826;47.514;19.056;2022-10-31T07:35:13;100852.97;;;15.71;81.57
50859;BME280;36826;47.514;19.056;2022-10-31T07:37:39;100854.50;;;15.74;80.40
50859;BME280;36826;47.514;19.056;2022-10-31T07:40:06;100851.47;;;15.59;80.57
50859;BME280;36826;47.514;19.056;2022-10-31T07:42:42;100862.00;;;15.80;79.67
50859;BME280;36826;47.514;19.056;2022-10-31T07:45:13;100865.03;;;15.95;78.41
50859;BME280;36826;47.514;19.056;2022-10-31T07:47:40;100867.44;;;15.52;79.34
50859;BME280;36826;47.514;19.056;2022-10-31T07:50:08;100865.94;;;15.40;81.21
50859;BME280;36826;47.514;19.056;2022-10-31T07:52:33;100861.94;;;15.44;82.06
50859;BME280;36826;47.514;19.056;2022-10-31T07:54:59;100854.00;;;15.60;80.67
50859;BME280;36826;47.514;19.056;2022-10-31T07:57:24;100852.56;;;15.84;79.61
50859;BME280;36826;47.514;19.056;2022-10-31T07:59:50;100856.25;;;15.83;78.60
50859;BME280;36826;47.514;19.056;2022-10-31T08:02:15;100853.50;;;15.75;78.18
50859;BME280;36826;47.514;19.056;2022-10-31T08:04:40;100867.50;;;15.88;77.38
50859;BME280;36826;47.514;19.056;2022-10-31T08:07:06;100857.81;;;15.68;79.05
50859;BME280;36826;47.514;19.056;2022-10-31T08:09:31;100863.50;;;15.46;79.41
50859;BME280;36826;47.514;19.056;2022-10-31T08:11:57;100859.38;;;15.14;81.92
50859;BME280;36826;47.514;19.056;2022-10-31T08:14:22;100863.81;;;15.06;84.02
50859;BME280;36826;47.514;19.056;2022-10-31T08:16:48;100865.00;;;14.93;85.00
50859;BME280;36826;47.514;19.056;2022-10-31T08:19:13;100868.50;;;14.76;88.13
50859;BME280;36826;47.514;19.056;2022-10-31T08:21:39;100872.50;;;14.52;90.04
50859;BME280;36826;47.514;19.056;2022-10-31T08:24:05;100866.94;;;15.39;84.67
50859;BME280;36826;47.514;19.056;2022-10-31T08:26:30;100867.22;;;15.63;81.81
50859;BME280;36826;47.514;19.056;2022-10-31T08:28:56;100869.94;;;15.82;80.46
50859;BME280;36826;47.514;19.056;2022-10-31T08:31:22;100866.88;;;15.94;78.78
50859;BME280;36826;47.514;19.056;2022-10-31T08:33:48;100866.00;;;15.76;79.52
50859;BME280;36826;47.514;19.056;2022-10-31T08:36:13;100866.66;;;16.06;77.51
50859;BME280;36826;47.514;19.056;2022-10-31T08:38:39;100858.53;;;16.24;77.47
50859;BME280;36826;47.514;19.056;2022-10-31T08:41:04;100861.56;;;16.47;75.82
50859;BME280;36826;47.514;19.056;2022-10-31T08:43:30;100865.06;;;16.66;74.76
50859;BME280;36826;47.514;19.056;2022-10-31T08:45:55;100858.34;;;16.70;73.76
50859;BME280;36826;47.514;19.056;2022-10-31T08:48:21;100868.09;;;16.63;74.27
50859;BME280;36826;47.514;19.056;2022-10-31T08:50:47;100873.81;;;16.60;74.57
50859;BME280;36826;47.514;19.056;2022-10-31T08:53:18;100869.56;;;16.31;75.44
50859;BME280;36826;47.514;19.056;2022-10-31T08:55:45;100871.00;;;16.43;75.42
50859;BME280;36826;47.514;19.056;2022-10-31T08:58:14;100871.44;;;16.56;74.45
50859;BME280;36826;47.514;19.056;2022-10-31T09:00:40;100878.72;;;15.93;74.80
50859;BME280;36826;47.514;19.056;2022-10-31T09:03:13;100874.50;;;15.81;77.75
50859;BME280;36826;47.514;19.056;2022-10-31T09:05:39;100872.59;;;16.09;77.19
50859;BME280;36826;47.514;19.056;2022-10-31T09:08:06;100876.03;;;16.38;75.32
50859;BME280;36826;47.514;19.056;2022-10-31T09:10:34;100877.00;;;15.92;77.63
50859;BME280;36826;47.514;19.056;2022-10-31T09:13:09;100878.03;;;15.63;81.48
50859;BME280;36826;47.514;19.056;2022-10-31T09:15:37;100878.00;;;15.91;79.24
50859;BME280;36826;47.514;19.056;2022-10-31T09:18:06;100879.84;;;16.09;78.71
50859;BME280;36826;47.514;19.056;2022-10-31T09:20:33;100878.47;;;16.23;77.40
50859;BME280;36826;47.514;19.056;2022-10-31T09:23:10;100883.22;;;15.47;81.77
50859;BME280;36826;47.514;19.056;2022-10-31T09:25:36;100889.88;;;15.25;84.13
50859;BME280;36826;47.514;19.056;2022-10-31T09:28:04;100877.75;;;15.39;84.62
50859;BME280;36826;47.514;19.056;2022-10-31T09:30:32;100882.22;;;15.48;84.67
50859;BME280;36826;47.514;19.056;2022-10-31T09:33:00;100880.28;;;15.12;87.79
50859;BME280;36826;47.514;19.056;2022-10-31T09:35:26;100882.34;;;15.28;85.48
50859;BME280;36826;47.514;19.056;2022-10-31T09:37:59;100882.44;;;15.83;83.07
50859;BME280;36826;47.514;19.056;2022-10-31T09:43:25;100887.72;;;15.56;81.12
50859;BME280;36826;47.514;19.056;2022-10-31T09:46:11;100890.44;;;15.28;83.61
50859;BME280;36826;47.514;19.056;2022-10-31T09:54:44;100883.97;;;16.39;77.14
50859;BME280;36826;47.514;19.056;2022-10-31T09:57:15;100888.66;;;16.11;77.06
50859;BME280;36826;47.514;19.056;2022-10-31T09:59:43;100882.81;;;16.42;76.20
50859;BME280;36826;47.514;19.056;2022-10-31T10:04:56;100876.63;;;15.77;78.26
50859;BME280;36826;47.514;19.056;2022-10-31T10:07:35;100880.66;;;15.73;78.95
50859;BME280;36826;47.514;19.056;2022-10-31T10:20:49;100872.44;;;15.47;82.25
50859;BME280;36826;47.514;19.056;2022-10-31T10:23:29;100873.47;;;15.82;79.98
50859;BME280;36826;47.514;19.056;2022-10-31T10:26:16;100879.47;;;15.86;78.24
50859;BME280;36826;47.514;19.056;2022-10-31T10:28:45;100880.78;;;15.26;83.68
50859;BME280;36826;47.514;19.056;2022-10-31T10:31:14;100870.09;;;15.80;80.40
50859;BME280;36826;47.514;19.056;2022-10-31T10:33:42;100869.44;;;15.96;78.46
50859;BME280;36826;47.514;19.056;2022-10-31T10:36:14;100871.84;;;15.99;78.42
50859;BME280;36826;47.514;19.056;2022-10-31T10:41:19;100858.84;;;16.21;76.37
50859;BME280;36826;47.514;19.056;2022-10-31T10:43:45;100859.91;;;15.74;78.65
50859;BME280;36826;47.514;19.056;2022-10-31T10:46:21;100864.59;;;16.44;75.21
50859;BME280;36826;47.514;19.056;2022-10-31T10:59:25;100857.78;;;16.93;71.29
50859;BME280;36826;47.514;19.056;2022-10-31T11:01:51;100865.13;;;16.74;72.20
50859;BME280;36826;47.514;19.056;2022-10-31T11:04:34;100855.81;;;16.95;71.25
50859;BME280;36826;47.514;19.056;2022-10-31T11:09:30;100853.09;;;16.42;74.01
50859;BME280;36826;47.514;19.056;2022-10-31T11:11:57;100856.22;;;16.55;72.18
50859;BME280;36826;47.514;19.056;2022-10-31T11:14:23;100851.34;;;16.33;73.09
50859;BME280;36826;47.514;19.056;2022-10-31T11:16:54;100858.38;;;16.25;73.50
50859;BME280;36826;47.514;19.056;2022-10-31T11:19:25;100860.88;;;16.71;72.87
50859;BME280;36826;47.514;19.056;2022-10-31T11:22:08;100854.75;;;16.61;71.38
50859;BME280;36826;47.514;19.056;2022-10-31T11:24:39;100853.34;;;16.83;70.92
50859;BME280;36826;47.514;19.056;2022-10-31T11:27:20;100850.69;;;16.92;70.57
50859;BME280;36826;47.514;19.056;2022-10-31T11:29:45;100846.41;;;17.15;69.75
50859;BME280;36826;47.514;19.056;2022-10-31T11:32:22;100839.06;;;17.42;68.62
50859;BME280;36826;47.514;19.056;2022-10-31T11:34:53;100840.59;;;17.45;68.04
50859;BME280;36826;47.514;19.056;2022-10-31T11:37:25;100840.38;;;17.22;68.42
50859;BME280;36826;47.514;19.056;2022-10-31T11:39:56;100836.81;;;16.60;70.39
50859;BME280;36826;47.514;19.056;2022-10-31T11:42:30;100830.75;;;16.66;70.96
50859;BME280;36826;47.514;19.056;2022-10-31T11:45:02;100834.09;;;16.34;71.46
50859;BME280;36826;47.514;19.056;2022-10-31T11:47:31;100832.47;;;16.41;71.88
50859;BME280;36826;47.514;19.056;2022-10-31T11:50:01;100827.59;;;16.00;73.07
50859;BME280;36826;47.514;19.056;2022-10-31T11:52:30;100834.13;;;15.79;75.07
50859;BME280;36826;47.514;19.056;2022-10-31T11:57:31;100831.84;;;16.29;73.58
50859;BME280;36826;47.514;19.056;2022-10-31T11:59:59;100843.94;;;15.99;73.62
50859;BME280;36826;47.514;19.056;2022-10-31T12:02:26;100842.69;;;16.11;74.04
50859;BME280;36826;47.514;19.056;2022-10-31T12:07:31;100838.63;;;16.07;74.08
50859;BME280;36826;47.514;19.056;2022-10-31T12:09:57;100838.28;;;15.74;75.36
50859;BME280;36826;47.514;19.056;2022-10-31T12:15:35;100828.22;;;16.38;72.69
50859;BME280;36826;47.514;19.056;2022-10-31T12:23:28;100839.00;;;16.12;72.76
50859;BME280;36826;47.514;19.056;2022-10-31T12:26:19;100835.00;;;16.16;74.22
50859;BME280;36826;47.514;19.056;2022-10-31T12:34:39;100839.13;;;16.29;72.10
50859;BME280;36826;47.514;19.056;2022-10-31T12:39:58;100832.78;;;16.38;72.17
50859;BME280;36826;47.514;19.056;2022-10-31T12:42:47;100832.53;;;16.05;73.88
50859;BME280;36826;47.514;19.056;2022-10-31T12:51:35;100826.94;;;16.77;69.88
50859;BME280;36826;47.514;19.056;2022-10-31T12:59:35;100828.56;;;14.89;81.37
50859;BME280;36826;47.514;19.056;2022-10-31T13:02:17;100829.63;;;15.34;79.89
50859;BME280;36826;47.514;19.056;2022-10-31T13:05:01;100823.06;;;15.37;78.87
50859;BME280;36826;47.514;19.056;2022-10-31T13:07:47;100820.75;;;15.42;78.62
50859;BME280;36826;47.514;19.056;2022-10-31T13:10:22;100822.59;;;15.59;77.77
50859;BME280;36826;47.514;19.056;2022-10-31T13:12:54;100821.19;;;15.37;78.88
50859;BME280;36826;47.514;19.056;2022-10-31T13:15:25;100819.97;;;15.49;78.37
50859;BME280;36826;47.514;19.056;2022-10-31T13:17:55;100816.31;;;16.05;75.78
50859;BME280;36826;47.514;19.056;2022-10-31T13:20:27;100815.69;;;15.93;76.15
50859;BME280;36826;47.514;19.056;2022-10-31T13:22:59;100814.84;;;16.10;74.54
50859;BME280;36826;47.514;19.056;2022-10-31T13:25:31;100818.28;;;16.21;73.15
50859;BME280;36826;47.514;19.056;2022-10-31T13:28:03;100824.03;;;16.70;71.23
50859;BME280;36826;47.514;19.056;2022-10-31T13:30:36;100815.28;;;16.50;71.14
50859;BME280;36826;47.514;19.056;2022-10-31T13:35:57;100817.50;;;16.29;71.64
50859;BME280;36826;47.514;19.056;2022-10-31T13:41:22;100816.94;;;15.34;76.26
50859;BME280;36826;47.514;19.056;2022-10-31T13:46:41;100818.50;;;15.37;79.46
50859;BME280;36826;47.514;19.056;2022-10-31T13:57:16;100819.53;;;16.26;72.34
50859;BME280;36826;47.514;19.056;2022-10-31T13:59:48;100818.13;;;16.22;74.31
50859;BME280;36826;47.514;19.056;2022-10-31T14:02:16;100809.09;;;16.14;73.02
50859;BME280;36826;47.514;19.056;2022-10-31T14:04:51;100813.22;;;16.00;74.25
50859;BME280;36826;47.514;19.056;2022-10-31T14:07:20;100818.13;;;16.75;70.98
50859;BME280;36826;47.514;19.056;2022-10-31T14:12:26;100813.69;;;15.77;74.16
50859;BME280;36826;47.514;19.056;2022-10-31T14:14:56;100817.09;;;15.15;78.41
50859;BME280;36826;47.514;19.056;2022-10-31T14:17:25;100820.16;;;14.92;79.78
50859;BME280;36826;47.514;19.056;2022-10-31T14:22:31;100818.19;;;15.86;75.77
50859;BME280;36826;47.514;19.056;2022-10-31T14:24:56;100812.47;;;15.89;74.51
50859;BME280;36826;47.514;19.056;2022-10-31T14:29:53;100812.22;;;15.83;76.35
50859;BME280;36826;47.514;19.056;2022-10-31T14:32:22;100805.19;;;15.72;77.13
50859;BME280;36826;47.514;19.056;2022-10-31T14:34:57;100812.69;;;15.60;76.82
50859;BME280;36826;47.514;19.056;2022-10-31T14:40:35;100813.31;;;14.98;82.04
50859;BME280;36826;47.514;19.056;2022-10-31T14:49:18;100804.72;;;15.58;78.39
50859;BME280;36826;47.514;19.056;2022-10-31T14:51:50;100807.34;;;15.68;78.01
50859;BME280;36826;47.514;19.056;2022-10-31T14:54:33;100812.25;;;15.37;78.89
50859;BME280;36826;47.514;19.056;2022-10-31T14:57:04;100814.44;;;15.51;79.19
50859;BME280;36826;47.514;19.056;2022-10-31T14:59:33;100814.22;;;15.62;77.57
50859;BME280;36826;47.514;19.056;2022-10-31T15:02:15;100807.38;;;15.86;76.41
50859;BME280;36826;47.514;19.056;2022-10-31T15:04:44;100811.75;;;15.69;77.59